WetterOnline ( http://www.wetteronline.de )

Wetter aktuell Altmark

Aktuelles Wetter: Gardelegen (48m)

6-stündlich | Neueste Meldungen
Ortszeit Temperatur Wetter
Fr, 25.05. 8:00 18.3° C fast wolkenlos
Fr, 25.05. 2:00 16.2° C fast wolkenlos
Do, 24.05. 20:00 23.4° C fast wolkenlos
Do, 24.05. 14:00 24.6° C fast wolkenlos
Do, 24.05. 8:00 16.4° C leicht bewölkt
Do, 24.05. 2:00 14.1° C fast wolkenlos
Mi, 23.05. 20:00 23.4° C fast wolkenlos
Mi, 23.05. 14:00 24.9° C leicht bewölkt
Ortszeit Temperatur Wetter
Fr, 25.05. 10:00 23.0° C wolkenlos
Fr, 25.05. 9:50 23.0° C wolkenlos
Fr, 25.05. 9:40 22.6° C fast wolkenlos
Fr, 25.05. 9:30 22.2° C fast wolkenlos
Fr, 25.05. 9:20 22.2° C fast wolkenlos
Fr, 25.05. 9:10 21.4° C fast wolkenlos
Fr, 25.05. 9:00 21.0° C wolkenlos
Fr, 25.05. 8:30 19.3° C fast wolkenlos
Fr, 25.05. 8:00 18.3° C fast wolkenlos
Fr, 25.05. 7:30 17.3° C wolkenlos
Fr, 25.05. 7:00 16.2° C wolkenlos
Ortszeit Relative Feuchte Sichtweite
Fr, 25.05. 8:00 59% 27 km
Fr, 25.05. 2:00 64% 45 km
Do, 24.05. 20:00 41% 70 km
Do, 24.05. 14:00 37% 18 km
Do, 24.05. 8:00 63% 18 km
Do, 24.05. 2:00 67% 65 km
Mi, 23.05. 20:00 31% 45 km
Mi, 23.05. 14:00 34% 29 km
Ortszeit Relative Feuchte Sichtweite
Fr, 25.05. 10:00 46% 35 km
Fr, 25.05. 9:50 46% -
Fr, 25.05. 9:40 47% -
Fr, 25.05. 9:30 48% 23 km
Fr, 25.05. 9:20 48% -
Fr, 25.05. 9:10 50% -
Fr, 25.05. 9:00 52% 24 km
Fr, 25.05. 8:30 58% 26 km
Fr, 25.05. 8:00 59% 27 km
Fr, 25.05. 7:30 63% 19 km
Fr, 25.05. 7:00 67% 27 km
Ortszeit Niederschlagsmenge Niederschlagsart
Fr, 25.05. 8:00 0.0 l/m2 in 12 Std. -
Fr, 25.05. 2:00 0.0 l/m2 in 6 Std. -
Do, 24.05. 20:00 0.0 l/m2 in 12 Std. -
Do, 24.05. 14:00 0.0 l/m2 in 6 Std. -
Do, 24.05. 8:00 0.0 l/m2 in 12 Std. -
Do, 24.05. 2:00 0.0 l/m2 in 6 Std. -
Mi, 23.05. 20:00 0.0 l/m2 in 12 Std. -
Mi, 23.05. 14:00 0.0 l/m2 in 6 Std. -
Ortszeit Niederschlagsmenge Niederschlagsart
Fr, 25.05. 10:00 0.0 l/m2 in 1 Std. -
Fr, 25.05. 9:50 keine Meldung -
Fr, 25.05. 9:40 keine Meldung -
Fr, 25.05. 9:30 0.0 l/m2 in 1 Std. -
Fr, 25.05. 9:20 keine Meldung -
Fr, 25.05. 9:10 keine Meldung -
Fr, 25.05. 9:00 0.0 l/m2 in 1 Std. -
Fr, 25.05. 8:30 0.0 l/m2 in 1 Std. -
Fr, 25.05. 8:00 0.0 l/m2 in 1 Std. -
Fr, 25.05. 7:30 0.0 l/m2 in 1 Std. -
Fr, 25.05. 7:00 0.0 l/m2 in 1 Std. -
Ortszeit Stärke Spitze Richtung
km/h Bft. km/h Grad Sektor
Fr, 25.05. 8:00 13 3 24 70° O
Fr, 25.05. 2:00 4 1 25 50° NO
Do, 24.05. 20:00 14 3 40 70° O
Do, 24.05. 14:00 18 3 36 100° O
Do, 24.05. 8:00 11 2 22 70° O
Do, 24.05. 2:00 6 1 28 20° N
Mi, 23.05. 20:00 9 2 39 50° NO
Mi, 23.05. 14:00 13 3 31 20° N
Ortszeit Stärke Spitze Richtung
km/h Bft. km/h Grad Sektor
Fr, 25.05. 10:00 13 3 22 80° O
Fr, 25.05. 9:50 13 3 - 80° O
Fr, 25.05. 9:40 11 2 - 90° O
Fr, 25.05. 9:30 11 2 22 90° O
Fr, 25.05. 9:20 11 2 - 90° O
Fr, 25.05. 9:10 11 2 - 90° O
Fr, 25.05. 9:00 11 2 24 80° O
Fr, 25.05. 8:30 9 2 24 70° O
Fr, 25.05. 8:00 13 3 24 70° O
Fr, 25.05. 7:30 13 3 24 80° O
Fr, 25.05. 7:00 11 2 22 80° O
Ortszeit Untergrenze Bedeckung Gattung
total tief tief mittel hoch
Fr, 25.05. 8:00 9000 m 1/8 0/8 - - -
Fr, 25.05. 2:00 9000 m 1/8 0/8 - - -
Do, 24.05. 20:00 7500 m 1/8 0/8 - - -
Do, 24.05. 14:00 10500 m 1/8 0/8 - - -
Do, 24.05. 8:00 9000 m 4/8 0/8 - - -
Do, 24.05. 2:00 10500 m 2/8 0/8 - - -
Mi, 23.05. 20:00 9000 m 1/8 0/8 - - -
Mi, 23.05. 14:00 1800 m 3/8 3/8 - - -
Ortszeit Bedeckungsgrad in Achtel und Wolkenuntergrenze
Fr, 25.05. 10:00 keine Wolken
Fr, 25.05. 9:50 keine Wolken
Fr, 25.05. 9:40 1(9000m)
Fr, 25.05. 9:30 1(10500m)
Fr, 25.05. 9:20 1(10500m)
Fr, 25.05. 9:10 1(10500m)
Fr, 25.05. 9:00 1(10500m)
Fr, 25.05. 8:30 1(10500m)
Fr, 25.05. 8:00 1(9000m)
Fr, 25.05. 7:30 keine Wolken
Fr, 25.05. 7:00 keine Wolken
Ortszeit Luftdruck NN (hPa) Tendenz (hPa in 3 Std.)
Fr, 25.05. 8:00 1021 - 0,1
Fr, 25.05. 2:00 1022 + 0,5
Do, 24.05. 20:00 1020 - 0,5
Do, 24.05. 14:00 1022 - 1,1
Do, 24.05. 8:00 1024 + 0,4
Do, 24.05. 2:00 1024 + 0,2
Mi, 23.05. 20:00 1022 + 0,4
Mi, 23.05. 14:00 1022 + 0,3
Ortszeit Luftdruck NN (hPa) Tendenz (hPa in 3 Std.)
Fr, 25.05. 10:00 1021 + 0,2
Fr, 25.05. 9:50 1021 keine Meldung
Fr, 25.05. 9:40 1021 keine Meldung
Fr, 25.05. 9:30 1021 + 0,1
Fr, 25.05. 9:20 1021 keine Meldung
Fr, 25.05. 9:10 1021 keine Meldung
Fr, 25.05. 9:00 1021 + 0,1
Fr, 25.05. 8:30 1021 + 0,1
Fr, 25.05. 8:00 1021 - 0,1
Fr, 25.05. 7:30 1021 - 0,2
Fr, 25.05. 7:00 1021 - 0,3
Ortszeit Schneehöhe (cm)
Fr, 25.05. 8:00 -
Fr, 25.05. 2:00 -
Do, 24.05. 20:00 -
Do, 24.05. 14:00 -
Do, 24.05. 8:00 -
Do, 24.05. 2:00 -
Mi, 23.05. 20:00 -
Mi, 23.05. 14:00 -
Ortszeit Schneehöhe (cm)
Fr, 25.05. 10:00 -
Fr, 25.05. 9:50 -
Fr, 25.05. 9:40 -
Fr, 25.05. 9:30 -
Fr, 25.05. 9:20 -
Fr, 25.05. 9:10 -
Fr, 25.05. 9:00 -
Fr, 25.05. 8:30 -
Fr, 25.05. 8:00 -
Fr, 25.05. 7:30 -
Fr, 25.05. 7:00 -
Link zu dieser Seite / Seite empfehlen

Das Wetter in ...